Time;durP1;ratioP1;P1;durP2;ratioP2;P2;SDS_P1;SDS_P2;PMS_P1;PMS_P2;Temp;Humidity;BMP_temperature;BMP_pressure;BME280_temperature;BME280_humidity;BME280_pressure;Samples;Min_cycle;Max_cycle;Signal;HPM_P1;HPM_P2
2023/08/06 00:00:44;;;;;;;1.77;0.60;;;24.40;99.90;;;;;;5034842;28;20455;-74
2023/08/06 00:03:10;;;;;;;1.00;0.43;;;24.40;99.90;;;;;;5037278;28;20456;-75
2023/08/06 00:05:36;;;;;;;1.90;0.70;;;;;;;;;;5035169;28;20029;-75
2023/08/06 00:08:02;;;;;;;1.77;0.60;;;24.40;99.90;;;;;;5036458;28;20017;-74
2023/08/06 00:10:27;;;;;;;0.70;0.40;;;24.40;99.90;;;;;;5035152;28;20026;-74
2023/08/06 00:12:59;;;;;;;1.85;0.50;;;24.40;99.90;;;;;;5036351;28;20475;-74
2023/08/06 00:15:25;;;;;;;0.90;0.50;;;24.40;99.90;;;;;;5035422;28;20029;-74
2023/08/06 00:17:51;;;;;;;1.10;0.30;;;24.30;99.90;;;;;;5036147;28;20032;-74
2023/08/06 00:20:16;;;;;;;2.17;0.43;;;24.30;99.90;;;;;;5033887;28;20116;-74
2023/08/06 00:22:42;;;;;;;0.98;0.52;;;24.30;99.90;;;;;;5036144;28;20364;-74
2023/08/06 00:25:08;;;;;;;0.93;0.55;;;24.30;99.90;;;;;;5034735;28;20471;-75
2023/08/06 00:27:34;;;;;;;1.05;0.65;;;24.30;99.90;;;;;;5036443;28;20057;-74
2023/08/06 00:29:59;;;;;;;1.13;0.63;;;24.40;99.90;;;;;;5034992;28;20549;-74
2023/08/06 00:32:25;;;;;;;1.63;0.90;;;24.40;99.90;;;;;;5035143;28;20037;-74
2023/08/06 00:34:51;;;;;;;1.05;0.60;;;24.40;99.90;;;;;;5036056;28;20033;-73
2023/08/06 00:37:17;;;;;;;0.80;0.65;;;24.40;99.90;;;;;;5039896;28;20017;-73
2023/08/06 00:39:43;;;;;;;2.13;0.63;;;24.30;99.90;;;;;;5044810;28;20029;-74
2023/08/06 00:42:10;;;;;;;1.60;0.68;;;24.30;99.90;;;;;;5035794;28;20037;-74
2023/08/06 00:44:35;;;;;;;1.88;1.05;;;24.30;99.90;;;;;;5034933;28;20033;-74
2023/08/06 00:47:02;;;;;;;1.38;0.60;;;24.30;99.90;;;;;;5042064;28;20415;-74
2023/08/06 00:49:27;;;;;;;2.05;0.90;;;24.30;99.90;;;;;;5038426;28;20022;-73
2023/08/06 00:51:54;;;;;;;1.45;0.82;;;24.20;99.90;;;;;;5034327;28;20025;-74
2023/08/06 00:54:19;;;;;;;0.80;0.80;;;24.30;99.90;;;;;;5034005;28;20021;-75
2023/08/06 00:56:46;;;;;;;0.70;0.70;;;24.30;99.90;;;;;;5023956;28;20028;-74
2023/08/06 00:59:12;;;;;;;1.83;0.80;;;24.30;99.90;;;;;;5030924;28;20108;-74
2023/08/06 01:01:38;;;;;;;0.70;0.70;;;24.20;99.90;;;;;;5035643;28;20052;-74
2023/08/06 01:04:04;;;;;;;1.00;0.82;;;24.20;99.90;;;;;;5033518;28;20021;-74
2023/08/06 01:07:10;;;;;;;1.02;0.85;;;24.20;99.90;;;;;;5035694;28;20092;-74
2023/08/06 01:10:09;;;;;;;1.60;0.60;;;24.10;99.90;;;;;;5025186;28;20536;-74
2023/08/06 01:13:06;;;;;;;0.93;0.77;;;24.10;99.90;;;;;;5023191;28;20060;-74
2023/08/06 01:15:43;;;;;;;0.93;0.90;;;24.20;99.90;;;;;;5033465;28;20121;-75
2023/08/06 01:18:10;;;;;;;2.60;1.00;;;24.10;99.90;;;;;;5035303;28;20573;-74
2023/08/06 01:20:35;;;;;;;1.67;0.90;;;24.10;99.90;;;;;;5032188;28;20358;-75
2023/08/06 01:23:01;;;;;;;2.08;1.13;;;24.00;99.90;;;;;;5034412;28;20040;-75
2023/08/06 01:25:33;;;;;;;0.90;0.77;;;23.90;99.90;;;;;;5026721;28;20025;-74
2023/08/06 01:28:11;;;;;;;0.80;0.80;;;23.90;99.90;;;;;;5030301;28;20035;-75
2023/08/06 01:30:41;;;;;;;1.58;0.85;;;23.90;99.90;;;;;;5043938;28;20124;-74
2023/08/06 01:33:09;;;;;;;1.15;1.00;;;23.80;99.90;;;;;;5034254;28;20467;-74
2023/08/06 01:35:36;;;;;;;1.77;0.85;;;23.90;99.90;;;;;;5034736;28;20037;-74
2023/08/06 01:38:03;;;;;;;1.20;0.80;;;23.80;99.90;;;;;;5039431;28;20556;-74
2023/08/06 01:40:29;;;;;;;1.67;0.70;;;23.80;99.90;;;;;;5022920;28;20045;-74
2023/08/06 01:42:55;;;;;;;1.50;1.02;;;23.80;99.90;;;;;;5031233;28;20041;-73
2023/08/06 01:45:20;;;;;;;1.73;0.75;;;23.70;99.90;;;;;;5044261;28;20021;-74
2023/08/06 01:47:46;;;;;;;1.05;0.98;;;23.80;99.90;;;;;;5037990;28;20025;-75
2023/08/06 01:50:12;;;;;;;0.70;0.68;;;23.80;99.90;;;;;;5034662;28;20076;-74
2023/08/06 01:52:37;;;;;;;2.03;0.70;;;23.70;99.90;;;;;;5034864;28;20390;-74
2023/08/06 01:55:09;;;;;;;2.45;0.90;;;23.70;99.90;;;;;;5033941;28;20025;-74
2023/08/06 01:57:35;;;;;;;1.80;0.88;;;23.70;99.90;;;;;;5034799;28;20037;-74
2023/08/06 02:00:00;;;;;;;1.10;1.00;;;23.70;99.90;;;;;;5027986;28;20373;-74
2023/08/06 02:02:26;;;;;;;1.90;0.80;;;23.80;99.90;;;;;;5027512;28;20456;-75
2023/08/06 02:04:52;;;;;;;1.95;1.25;;;23.80;99.90;;;;;;5031443;28;20036;-74
2023/08/06 02:07:17;;;;;;;2.13;1.10;;;23.80;99.90;;;;;;5033111;28;20021;-74
2023/08/06 02:09:43;;;;;;;2.25;1.35;;;23.90;99.90;;;;;;5032496;28;20526;-74
2023/08/06 02:12:09;;;;;;;2.35;1.27;;;23.90;99.90;;;;;;5034229;28;20057;-74
2023/08/06 02:14:35;;;;;;;1.98;1.23;;;23.90;99.90;;;;;;5026094;28;20029;-73
2023/08/06 02:17:00;;;;;;;1.35;1.23;;;23.80;99.90;;;;;;5033142;28;20030;-74
2023/08/06 02:19:26;;;;;;;3.63;1.30;;;23.80;99.90;;;;;;5031365;28;20026;-73
2023/08/06 02:21:51;;;;;;;1.20;1.02;;;23.80;99.90;;;;;;5033958;28;20060;-74
2023/08/06 02:24:17;;;;;;;1.20;1.10;;;23.90;99.90;;;;;;5032532;28;20111;-73
2023/08/06 02:26:43;;;;;;;1.63;1.42;;;23.80;99.90;;;;;;5033889;28;20021;-74
2023/08/06 02:29:08;;;;;;;2.53;1.42;;;23.90;99.90;;;;;;5031787;28;20052;-73
2023/08/06 02:31:34;;;;;;;3.67;1.35;;;23.90;99.90;;;;;;5033806;28;20167;-73
2023/08/06 02:34:00;;;;;;;2.38;1.20;;;23.90;99.90;;;;;;5032762;28;20479;-73
2023/08/06 02:36:29;;;;;;;4.47;1.48;;;23.80;99.90;;;;;;5032948;28;20029;-74
2023/08/06 02:38:55;;;;;;;1.60;1.00;;;23.90;99.90;;;;;;5023203;28;20026;-73
2023/08/06 02:41:20;;;;;;;3.33;1.38;;;23.90;99.90;;;;;;5033768;28;20033;-73
2023/08/06 02:43:46;;;;;;;1.70;1.00;;;23.80;99.90;;;;;;5033117;28;20030;-73
2023/08/06 02:46:12;;;;;;;1.20;0.90;;;23.90;99.90;;;;;;5033524;28;20101;-73
2023/08/06 02:48:37;;;;;;;2.28;1.00;;;23.80;99.90;;;;;;5032717;28;20036;-74
2023/08/06 02:51:07;;;;;;;1.27;0.65;;;23.70;99.90;;;;;;5032690;28;20064;-74
2023/08/06 02:53:33;;;;;;;1.58;1.08;;;23.70;99.90;;;;;;5032521;28;20487;-73
2023/08/06 02:55:59;;;;;;;1.30;1.10;;;23.70;99.90;;;;;;5033122;28;20387;-73
2023/08/06 02:58:25;;;;;;;3.92;1.17;;;23.70;99.90;;;;;;5032703;28;20041;-73
2023/08/06 03:01:05;;;;;;;1.00;0.85;;;23.70;99.90;;;;;;5033634;28;20502;-74
2023/08/06 03:03:31;;;;;;;4.25;1.10;;;23.70;99.90;;;;;;5033087;28;20548;-73
2023/08/06 03:05:57;;;;;;;1.48;0.80;;;23.60;99.90;;;;;;5028679;28;20048;-73
2023/08/06 03:08:23;;;;;;;1.13;0.80;;;23.60;99.90;;;;;;5020408;28;20451;-74
2023/08/06 03:10:52;;;;;;;1.52;1.05;;;23.60;99.90;;;;;;5033261;28;20030;-74
2023/08/06 03:13:18;;;;;;;1.48;1.17;;;23.60;99.90;;;;;;5031103;28;20040;-74
2023/08/06 03:15:53;;;;;;;1.35;1.00;;;23.50;99.90;;;;;;5030222;28;20030;-73
2023/08/06 03:18:20;;;;;;;1.48;0.93;;;23.50;99.90;;;;;;5032296;28;20032;-73
2023/08/06 03:20:45;;;;;;;1.05;0.93;;;23.50;99.90;;;;;;5032971;28;20419;-73
2023/08/06 03:23:11;;;;;;;1.75;0.75;;;23.50;99.90;;;;;;5032167;28;20053;-74
2023/08/06 03:25:36;;;;;;;1.02;0.90;;;23.50;99.90;;;;;;5031052;28;20072;-74
2023/08/06 03:28:02;;;;;;;3.60;1.13;;;23.50;99.90;;;;;;5033158;28;20025;-72
2023/08/06 03:30:28;;;;;;;2.90;1.17;;;23.40;99.90;;;;;;5032908;28;20014;-73
2023/08/06 03:32:54;;;;;;;4.07;1.70;;;23.30;99.90;;;;;;5030718;28;20379;-73
2023/08/06 03:35:20;;;;;;;1.67;1.58;;;23.40;99.90;;;;;;5032791;28;20036;-73
2023/08/06 03:37:46;;;;;;;3.05;1.60;;;23.30;99.90;;;;;;5034568;28;20401;-74
2023/08/06 03:40:12;;;;;;;1.38;1.20;;;23.40;99.90;;;;;;5042958;28;20127;-74
2023/08/06 03:42:37;;;;;;;2.28;1.45;;;23.40;99.90;;;;;;5031988;28;20033;-73
2023/08/06 03:45:03;;;;;;;1.55;1.10;;;23.40;99.90;;;;;;5030574;28;20032;-74
2023/08/06 03:47:29;;;;;;;1.13;0.77;;;23.30;99.90;;;;;;5032872;28;20021;-74
2023/08/06 03:49:55;;;;;;;1.83;1.02;;;23.20;99.90;;;;;;5032082;28;20629;-75
2023/08/06 03:52:20;;;;;;;4.57;1.30;;;23.20;99.90;;;;;;5031871;28;20033;-74
2023/08/06 03:54:46;;;;;;;1.13;0.93;;;23.00;99.90;;;;;;5032183;28;20029;-73
2023/08/06 03:57:12;;;;;;;0.80;0.80;;;23.10;99.90;;;;;;5032018;28;20033;-75
2023/08/06 03:59:37;;;;;;;2.45;1.10;;;23.10;99.90;;;;;;5030983;28;20045;-74
2023/08/06 04:02:03;;;;;;;3.15;1.20;;;23.10;99.90;;;;;;5032329;28;20034;-74
2023/08/06 04:04:29;;;;;;;1.77;1.30;;;23.10;99.90;;;;;;5031689;28;20113;-74
2023/08/06 04:06:54;;;;;;;1.85;1.00;;;23.00;99.90;;;;;;5031769;28;20105;-74
2023/08/06 04:09:20;;;;;;;1.73;1.20;;;23.00;99.90;;;;;;5032858;28;20383;-73
2023/08/06 04:11:46;;;;;;;1.75;1.30;;;23.00;99.90;;;;;;5031963;28;20017;-74
2023/08/06 04:14:11;;;;;;;1.40;1.25;;;23.00;99.90;;;;;;5030060;28;20466;-74
2023/08/06 04:16:37;;;;;;;2.67;1.30;;;23.00;99.90;;;;;;5033523;28;20033;-74
2023/08/06 04:19:03;;;;;;;1.48;1.20;;;23.00;99.90;;;;;;5041877;28;20460;-73
2023/08/06 04:21:31;;;;;;;2.00;1.50;;;22.90;99.90;;;;;;5026502;28;20038;-74
2023/08/06 04:23:58;;;;;;;1.40;1.30;;;22.80;99.90;;;;;;5024797;28;20034;-74
2023/08/06 04:26:24;;;;;;;1.30;1.20;;;22.70;99.90;;;;;;5033114;28;20021;-73
2023/08/06 04:28:49;;;;;;;1.40;1.30;;;22.70;99.90;;;;;;5029186;28;20026;-74
2023/08/06 04:31:15;;;;;;;2.38;1.70;;;22.80;99.90;;;;;;5035059;28;20399;-74
2023/08/06 04:33:40;;;;;;;1.33;1.23;;;22.70;99.90;;;;;;5034521;28;20507;-73
2023/08/06 04:36:06;;;;;;;1.75;1.65;;;22.80;99.90;;;;;;5036037;28;20033;-74
2023/08/06 04:38:32;;;;;;;2.60;1.60;;;22.60;99.90;;;;;;5045272;28;20029;-74
2023/08/06 04:40:58;;;;;;;2.35;1.40;;;22.70;99.90;;;;;;5039435;28;20048;-74
2023/08/06 04:43:24;;;;;;;2.05;1.58;;;22.80;99.90;;;;;;5033926;28;20096;-73
2023/08/06 04:45:50;;;;;;;2.05;1.80;;;22.70;99.90;;;;;;5035813;28;20026;-73
2023/08/06 04:48:17;;;;;;;2.53;1.85;;;22.70;99.90;;;;;;5033032;28;20116;-74
2023/08/06 04:50:46;;;;;;;2.95;1.98;;;22.70;99.90;;;;;;5034494;28;20025;-73
2023/08/06 04:53:12;;;;;;;4.75;2.08;;;22.70;99.90;;;;;;5026026;28;20034;-73
2023/08/06 04:55:38;;;;;;;3.72;1.80;;;22.60;99.90;;;;;;5034817;28;20486;-74
2023/08/06 04:58:04;;;;;;;2.78;1.63;;;22.60;99.90;;;;;;5038431;28;20083;-73
2023/08/06 05:00:29;;;;;;;2.50;1.60;;;22.60;99.90;;;;;;5039860;28;20026;-73
2023/08/06 05:02:55;;;;;;;2.20;1.70;;;22.40;99.90;;;;;;5035472;28;20041;-73
2023/08/06 05:05:22;;;;;;;3.00;2.10;;;22.50;99.90;;;;;;5029899;28;20055;-73
2023/08/06 05:07:49;;;;;;;3.17;2.25;;;22.50;99.90;;;;;;5028867;28;20030;-74
2023/08/06 05:10:15;;;;;;;2.15;1.90;;;22.50;99.90;;;;;;5034728;28;20540;-74
2023/08/06 05:12:41;;;;;;;3.15;2.33;;;22.50;99.90;;;;;;5035426;28;20033;-74
2023/08/06 05:15:07;;;;;;;4.63;2.35;;;22.40;99.90;;;;;;5033163;28;20029;-75
2023/08/06 05:17:33;;;;;;;2.30;2.10;;;22.40;99.90;;;;;;5033987;28;20040;-74
2023/08/06 05:20:00;;;;;;;5.22;2.28;;;22.50;99.90;;;;;;5033559;28;20033;-74
2023/08/06 05:22:25;;;;;;;4.30;2.10;;;22.40;99.90;;;;;;5035370;28;20406;-74
2023/08/06 05:24:56;;;;;;;2.75;2.25;;;22.50;99.90;;;;;;5033657;28;20026;-74
2023/08/06 05:27:22;;;;;;;2.97;2.67;;;22.40;99.90;;;;;;5020940;28;20523;-74
2023/08/06 05:29:48;;;;;;;3.53;2.55;;;22.20;99.90;;;;;;5031335;28;20105;-75
2023/08/06 05:32:15;;;;;;;2.50;2.30;;;22.30;99.90;;;;;;5034080;28;20022;-74
2023/08/06 05:34:41;;;;;;;2.95;2.38;;;22.50;99.90;;;;;;5037930;28;20304;-74
2023/08/06 05:37:07;;;;;;;2.50;2.30;;;22.40;99.90;;;;;;5034892;28;20041;-74
2023/08/06 05:39:33;;;;;;;2.92;2.35;;;22.40;99.90;;;;;;5032145;28;20022;-74
2023/08/06 05:41:58;;;;;;;2.85;2.55;;;22.40;99.90;;;;;;5044559;28;20124;-75
2023/08/06 05:44:24;;;;;;;3.05;2.33;;;22.50;99.90;;;;;;5036462;28;20455;-74
2023/08/06 05:46:56;;;;;;;5.63;2.40;;;22.40;99.90;;;;;;5034930;28;20033;-74
2023/08/06 05:49:21;;;;;;;3.38;2.25;;;22.40;99.90;;;;;;5031852;28;20475;-74
2023/08/06 05:51:48;;;;;;;2.60;2.40;;;22.50;99.90;;;;;;5041991;28;20082;-74
2023/08/06 05:54:13;;;;;;;3.63;2.15;;;22.50;99.90;;;;;;5039961;28;20113;-74
2023/08/06 05:56:39;;;;;;;3.92;2.45;;;22.50;99.90;;;;;;5034758;28;20101;-74
2023/08/06 05:59:05;;;;;;;3.17;2.33;;;22.40;99.90;;;;;;5033742;28;20053;-74
2023/08/06 06:01:30;;;;;;;2.08;1.70;;;22.40;99.90;;;;;;5033049;28;20136;-73
2023/08/06 06:03:56;;;;;;;4.00;1.80;;;22.30;99.90;;;;;;5032682;28;20021;-74
2023/08/06 06:06:22;;;;;;;3.53;2.00;;;22.50;99.90;;;;;;5033403;28;20033;-73
2023/08/06 06:08:47;;;;;;;2.30;1.90;;;22.30;99.90;;;;;;5029947;28;20052;-73
2023/08/06 06:11:13;;;;;;;2.47;1.83;;;22.20;99.90;;;;;;5035284;28;20103;-73
2023/08/06 06:13:39;;;;;;;3.10;1.90;;;22.30;99.90;;;;;;5032170;28;20060;-73
2023/08/06 06:16:05;;;;;;;2.97;1.70;;;22.40;99.90;;;;;;5032912;28;20041;-73
2023/08/06 06:18:31;;;;;;;3.50;1.83;;;22.50;99.90;;;;;;5033212;28;20045;-73
2023/08/06 06:20:56;;;;;;;3.05;1.73;;;22.60;99.90;;;;;;5038131;28;20021;-73
2023/08/06 06:23:22;;;;;;;3.38;1.45;;;22.60;99.90;;;;;;5036532;28;20037;-73
2023/08/06 06:25:54;;;;;;;3.17;1.92;;;22.70;99.90;;;;;;5034237;28;20083;-73
2023/08/06 06:28:20;;;;;;;1.80;1.58;;;22.70;99.90;;;;;;5033150;28;20026;-73
2023/08/06 06:30:45;;;;;;;2.13;1.65;;;22.50;99.90;;;;;;5032804;28;20024;-73
2023/08/06 06:33:11;;;;;;;4.28;1.90;;;22.60;99.90;;;;;;5033070;28;20037;-73
2023/08/06 06:35:37;;;;;;;2.28;1.55;;;22.70;99.90;;;;;;5031311;28;20028;-74
2023/08/06 06:38:03;;;;;;;3.17;1.55;;;22.70;99.90;;;;;;5040158;28;20085;-73
2023/08/06 06:40:28;;;;;;;1.80;1.45;;;22.70;99.90;;;;;;5040070;28;20053;-74
2023/08/06 06:42:54;;;;;;;1.33;1.20;;;22.80;99.90;;;;;;5033689;28;20447;-74
2023/08/06 06:45:20;;;;;;;2.70;1.70;;;22.80;99.90;;;;;;5032353;28;20075;-73
2023/08/06 06:47:46;;;;;;;3.75;1.80;;;22.80;99.90;;;;;;5033454;28;20033;-74
2023/08/06 06:50:12;;;;;;;6.80;1.77;;;22.80;99.90;;;;;;5031121;28;20037;-74
2023/08/06 06:52:37;;;;;;;2.65;1.70;;;22.70;99.90;;;;;;5033474;28;20033;-74
2023/08/06 06:55:03;;;;;;;6.63;1.58;;;22.90;99.90;;;;;;5031452;28;20064;-74
2023/08/06 06:57:29;;;;;;;2.53;1.92;;;22.80;99.90;;;;;;5033464;28;20486;-74
2023/08/06 06:59:55;;;;;;;2.10;1.40;;;22.90;99.90;;;;;;5034680;28;20049;-73
2023/08/06 07:02:21;;;;;;;2.42;1.70;;;23.00;99.90;;;;;;5033438;28;20041;-73
2023/08/06 07:04:46;;;;;;;2.88;1.60;;;23.00;99.90;;;;;;5028735;28;20041;-73
2023/08/06 07:07:12;;;;;;;1.73;1.63;;;23.00;99.90;;;;;;5033395;28;20080;-75
2023/08/06 07:09:38;;;;;;;2.15;1.50;;;23.00;99.90;;;;;;5032164;28;20116;-74
2023/08/06 07:12:04;;;;;;;2.05;1.70;;;23.00;99.90;;;;;;5033275;28;20029;-74
2023/08/06 07:14:29;;;;;;;1.55;1.23;;;23.00;99.90;;;;;;5031939;28;20029;-74
2023/08/06 07:16:55;;;;;;;1.83;1.52;;;23.10;99.90;;;;;;5033377;28;20028;-74
2023/08/06 07:19:21;;;;;;;2.88;1.88;;;23.20;99.90;;;;;;5031587;28;20414;-74
2023/08/06 07:21:46;;;;;;;1.42;1.33;;;23.30;99.90;;;;;;5033259;28;20391;-74
2023/08/06 07:24:12;;;;;;;1.58;1.15;;;23.30;99.90;;;;;;5037795;28;20067;-74
2023/08/06 07:26:38;;;;;;;1.67;0.90;;;23.30;99.90;;;;;;5032874;28;20029;-74
2023/08/06 07:29:04;;;;;;;1.83;1.00;;;23.30;99.90;;;;;;5031160;28;20487;-73
2023/08/06 07:31:29;;;;;;;1.20;1.10;;;23.50;99.90;;;;;;5033320;28;20083;-73
2023/08/06 07:33:55;;;;;;;1.73;0.80;;;23.50;99.90;;;;;;5030443;28;20419;-74
2023/08/06 07:36:21;;;;;;;1.33;1.10;;;23.50;99.90;;;;;;5032075;28;20025;-74
2023/08/06 07:38:48;;;;;;;0.88;0.80;;;23.50;99.90;;;;;;5040188;28;20044;-74
2023/08/06 07:41:14;;;;;;;1.50;1.17;;;23.60;99.90;;;;;;5032800;28;20041;-73
2023/08/06 07:43:40;;;;;;;2.03;0.95;;;23.50;99.90;;;;;;5031171;28;20416;-74
2023/08/06 07:46:05;;;;;;;1.30;1.20;;;23.50;99.90;;;;;;5022543;28;20030;-73
2023/08/06 07:48:31;;;;;;;0.90;0.90;;;23.60;99.90;;;;;;5031674;28;20391;-74
2023/08/06 07:50:57;;;;;;;1.38;1.08;;;23.80;99.90;;;;;;5039606;28;20132;-74
2023/08/06 07:53:26;;;;;;;1.15;1.05;;;23.80;99.90;;;;;;5030247;28;20029;-74
2023/08/06 07:55:53;;;;;;;1.30;1.20;;;23.80;99.90;;;;;;5032843;28;20031;-74
2023/08/06 07:58:20;;;;;;;3.17;1.40;;;23.90;99.90;;;;;;5031577;28;20501;-74
2023/08/06 08:00:46;;;;;;;1.42;1.33;;;23.90;99.90;;;;;;5033043;28;20171;-75
2023/08/06 08:03:15;;;;;;;1.88;1.50;;;23.90;99.90;;;;;;5035601;28;20057;-74
2023/08/06 08:05:43;;;;;;;2.60;1.40;;;24.00;99.90;;;;;;5032319;28;20099;-74
2023/08/06 08:08:09;;;;;;;2.45;1.20;;;24.10;99.90;;;;;;5036037;28;20044;-75
2023/08/06 08:10:35;;;;;;;1.70;1.60;;;24.10;99.90;;;;;;5036765;28;20025;-75
2023/08/06 08:13:04;;;;;;;3.00;1.75;;;24.10;99.90;;;;;;5035855;28;20103;-73
2023/08/06 08:15:30;;;;;;;3.72;1.58;;;24.10;99.90;;;;;;5031220;28;20441;-74
2023/08/06 08:17:56;;;;;;;1.58;1.40;;;24.20;99.90;;;;;;5049187;28;20033;-75
2023/08/06 08:20:22;;;;;;;1.80;1.50;;;24.20;99.90;;;;;;5034870;28;20029;-74
2023/08/06 08:22:48;;;;;;;1.10;0.80;;;24.20;99.90;;;;;;5036310;28;20509;-74
2023/08/06 08:25:14;;;;;;;2.78;1.55;;;24.40;99.90;;;;;;5034315;28;20013;-74
2023/08/06 08:27:39;;;;;;;0.98;0.98;;;24.40;99.90;;;;;;5036492;28;20068;-74
2023/08/06 08:30:06;;;;;;;1.27;1.15;;;24.40;99.90;;;;;;5034819;28;20057;-74
2023/08/06 08:32:31;;;;;;;1.10;1.10;;;24.40;99.90;;;;;;5036187;28;20033;-75
2023/08/06 08:34:57;;;;;;;1.85;0.90;;;24.50;99.90;;;;;;5035601;28;20048;-74
2023/08/06 08:37:24;;;;;;;1.35;1.17;;;24.60;99.90;;;;;;5034392;28;20048;-74
2023/08/06 08:39:50;;;;;;;1.38;1.15;;;24.70;99.90;;;;;;5047715;28;20021;-74
2023/08/06 08:42:16;;;;;;;1.17;1.00;;;24.80;99.90;;;;;;5034428;28;20053;-74
2023/08/06 08:44:45;;;;;;;0.98;0.82;;;24.70;99.90;;;;;;5034784;28;20356;-74
2023/08/06 08:47:12;;;;;;;2.38;0.93;;;24.80;99.90;;;;;;5035231;28;20028;-74
2023/08/06 08:49:42;;;;;;;2.00;1.20;;;24.80;99.90;;;;;;5036016;28;20025;-74
2023/08/06 08:52:11;;;;;;;1.00;1.00;;;24.90;99.90;;;;;;5030965;28;20048;-73
2023/08/06 08:54:38;;;;;;;1.75;1.10;;;25.10;99.90;;;;;;5033288;28;20380;-74
2023/08/06 08:57:04;;;;;;;1.85;1.00;;;25.00;99.90;;;;;;5044478;28;20025;-74
2023/08/06 08:59:30;;;;;;;1.63;1.00;;;25.10;99.90;;;;;;5037510;28;20562;-74
2023/08/06 09:01:56;;;;;;;2.08;1.33;;;25.10;99.90;;;;;;5043954;28;20123;-74
2023/08/06 09:04:23;;;;;;;3.08;1.00;;;25.20;99.90;;;;;;5040824;28;20471;-74
2023/08/06 09:06:50;;;;;;;3.08;1.58;;;25.20;99.90;;;;;;5034357;28;20041;-74
2023/08/06 09:09:29;;;;;;;1.85;0.95;;;25.30;99.90;;;;;;5034779;28;20033;-74
2023/08/06 09:12:04;;;;;;;1.00;0.82;;;25.30;99.90;;;;;;5022360;28;20074;-75
2023/08/06 09:14:29;;;;;;;1.10;0.98;;;25.30;99.90;;;;;;5032567;28;20045;-74
2023/08/06 09:16:56;;;;;;;1.90;1.20;;;25.30;99.90;;;;;;5035537;28;20133;-75
2023/08/06 09:19:28;;;;;;;1.33;0.98;;;25.50;99.90;;;;;;5034069;28;20052;-74
2023/08/06 09:21:56;;;;;;;1.08;0.90;;;25.60;99.90;;;;;;5035187;28;20034;-74
2023/08/06 09:24:22;;;;;;;0.60;0.60;;;25.70;99.90;;;;;;5034332;28;20025;-74
2023/08/06 09:26:47;;;;;;;0.82;0.73;;;25.80;99.90;;;;;;5037403;28;20033;-75
2023/08/06 09:29:14;;;;;;;0.95;0.95;;;25.90;99.90;;;;;;5044570;28;20376;-73
2023/08/06 09:31:43;;;;;;;1.38;0.85;;;25.90;99.90;;;;;;5035048;28;20022;-74
2023/08/06 09:34:19;;;;;;;0.95;0.95;;;25.90;99.90;;;;;;5033107;28;20021;-74
2023/08/06 09:36:51;;;;;;;1.35;0.80;;;26.00;99.90;;;;;;5034201;28;20040;-74
2023/08/06 09:39:18;;;;;;;0.63;0.63;;;26.00;99.90;;;;;;5034427;28;20030;-74
2023/08/06 09:41:45;;;;;;;0.82;0.82;;;26.30;99.90;;;;;;5034360;28;20128;-74
2023/08/06 09:44:24;;;;;;;1.13;0.45;;;26.30;99.90;;;;;;5032835;28;20080;-73
2023/08/06 09:46:51;;;;;;;0.85;0.50;;;26.20;99.90;;;;;;5035181;28;20391;-74
2023/08/06 09:49:19;;;;;;;0.70;0.70;;;26.40;99.90;;;;;;5033715;28;20029;-74
2023/08/06 09:51:46;;;;;;;1.20;0.90;;;26.50;99.90;;;;;;5046845;28;20025;-74
2023/08/06 09:54:16;;;;;;;0.70;0.70;;;26.40;99.90;;;;;;5026271;28;20526;-73
2023/08/06 09:56:42;;;;;;;1.58;1.00;;;26.50;99.90;;;;;;5030995;28;20669;-74
2023/08/06 09:59:08;;;;;;;3.53;0.60;;;;;;;;;;5032748;28;20157;-73
2023/08/06 10:01:35;;;;;;;0.70;0.70;;;;;;;;;;5042400;28;20159;-74
2023/08/06 10:04:07;;;;;;;4.00;0.80;;;;;;;;;;5040623;28;20041;-74
2023/08/06 10:06:36;;;;;;;1.48;0.80;;;;;;;;;;5033656;28;20033;-73
2023/08/06 10:09:02;;;;;;;1.63;0.80;;;;;;;;;;5025880;28;20030;-74
2023/08/06 10:11:29;;;;;;;0.65;0.65;;;;;;;;;;5034745;28;20065;-74
2023/08/06 10:14:04;;;;;;;0.60;0.60;;;;;;;;;;5030477;28;20068;-74
2023/08/06 10:16:31;;;;;;;0.90;0.90;;;;;;;;;;5032896;28;20076;-74
2023/08/06 10:18:58;;;;;;;1.02;0.50;;;;;;;;;;5030622;28;20541;-74
2023/08/06 10:21:27;;;;;;;0.82;0.60;;;26.60;99.90;;;;;;5036943;28;20088;-73
2023/08/06 10:23:54;;;;;;;1.48;0.40;;;27.80;99.90;;;;;;5043352;28;20029;-72
2023/08/06 10:26:20;;;;;;;2.55;0.90;;;27.80;99.90;;;;;;5034270;28;20033;-74
2023/08/06 10:28:46;;;;;;;0.70;0.70;;;27.70;99.90;;;;;;5032509;28;20403;-73
2023/08/06 10:31:11;;;;;;;0.90;0.90;;;28.00;99.90;;;;;;5031878;28;20025;-74
2023/08/06 10:33:41;;;;;;;0.73;0.70;;;;;;;;;;5033873;28;20080;-75
2023/08/06 10:36:09;;;;;;;7.15;1.05;;;;;;;;;;5032384;28;20470;-74
2023/08/06 10:38:37;;;;;;;1.67;0.77;;;;;;;;;;5031892;28;21881;-74
2023/08/06 10:41:04;;;;;;;0.80;0.80;;;;;;;;;;5033759;28;20096;-73
2023/08/06 10:43:33;;;;;;;0.80;0.80;;;;;;;;;;5032956;28;20041;-72
2023/08/06 10:46:00;;;;;;;1.20;1.00;;;;;;;;;;5033692;28;20030;-72
2023/08/06 10:48:31;;;;;;;0.82;0.82;;;;;;;;;;5032627;28;20029;-72
2023/08/06 10:50:57;;;;;;;1.70;1.40;;;;;;;;;;5034773;28;20021;-72
2023/08/06 10:53:23;;;;;;;2.60;1.40;;;;;;;;;;5029047;28;20062;-72
2023/08/06 10:55:49;;;;;;;1.15;1.05;;;;;;;;;;5032468;28;20025;-72
2023/08/06 10:58:16;;;;;;;0.73;0.73;;;;;;;;;;5045810;28;20040;-72
2023/08/06 11:00:44;;;;;;;1.05;0.90;;;;;;;;;;5034127;28;20383;-72
2023/08/06 11:03:10;;;;;;;1.13;1.02;;;;;;;;;;5032988;28;20056;-72
2023/08/06 11:05:37;;;;;;;0.90;0.90;;;;;;;;;;5016886;28;20050;-73
2023/08/06 11:08:03;;;;;;;1.73;1.55;;;;;;;;;;5032539;28;20044;-72
2023/08/06 11:10:33;;;;;;;3.25;1.63;;;;;;;;;;5030227;28;20074;-72
2023/08/06 11:13:03;;;;;;;0.95;0.82;;;;;;;;;;5032680;28;20064;-72
2023/08/06 11:15:30;;;;;;;1.88;1.27;;;;;;;;;;5034122;28;20060;-72
2023/08/06 11:17:56;;;;;;;0.65;0.52;;;;;;;;;;5031623;28;20030;-72
2023/08/06 11:20:24;;;;;;;0.80;0.80;;;;;;;;;;5032352;28;20029;-73
2023/08/06 11:22:55;;;;;;;1.98;1.17;;;;;;;;;;5031976;28;20041;-73
2023/08/06 11:25:22;;;;;;;1.00;1.00;;;;;;;;;;5031932;28;20021;-72
2023/08/06 11:27:48;;;;;;;0.63;0.63;;;;;;;;;;5032722;28;20380;-72
2023/08/06 11:30:15;;;;;;;0.80;0.80;;;;;;;;;;5032901;28;20463;-72
2023/08/06 11:32:47;;;;;;;0.93;0.93;;;;;;;;;;5018413;28;20434;-71
2023/08/06 11:35:13;;;;;;;0.80;0.80;;;;;;;;;;5026400;28;20022;-71
2023/08/06 11:37:44;;;;;;;2.72;1.10;;;28.00;99.90;;;;;;5022525;28;20079;-72
2023/08/06 11:40:13;;;;;;;3.25;0.85;;;29.10;99.90;;;;;;5028340;28;20048;-73
2023/08/06 11:42:39;;;;;;;1.40;0.90;;;29.20;99.90;;;;;;5033592;28;20037;-73
2023/08/06 11:45:05;;;;;;;15.98;14.48;;;29.40;99.90;;;;;;5031885;28;20030;-72
2023/08/06 11:47:31;;;;;;;7.60;6.35;;;;;;;;;;5032741;28;20505;-72
2023/08/06 11:49:57;;;;;;;7.90;6.78;;;;;;;;;;5032064;28;20029;-72
2023/08/06 11:52:25;;;;;;;3.30;3.00;;;;;;;;;;5030498;28;20419;-73
2023/08/06 11:55:03;;;;;;;5.22;4.28;;;;;;;;;;5031716;28;20109;-72
2023/08/06 11:57:34;;;;;;;9.00;7.53;;;35.00;99.90;;;;;;5032748;28;20030;-73
2023/08/06 12:00:10;;;;;;;11.90;10.70;;;;;;;;;;5024169;28;20403;-73
2023/08/06 12:02:39;;;;;;;2.47;2.10;;;;;;;;;;5046948;28;20041;-73
2023/08/06 12:05:17;;;;;;;13.40;12.23;;;37.80;99.90;;;;;;5030602;28;20361;-72
2023/08/06 12:07:45;;;;;;;2.50;2.40;;;43.60;99.90;;;;;;5032682;28;20119;-73
2023/08/06 12:10:13;;;;;;;4.43;4.07;;;42.80;99.90;;;;;;5031680;28;20025;-73
2023/08/06 12:12:39;;;;;;;5.20;4.80;;;42.10;99.90;;;;;;5034796;28;20032;-73
2023/08/06 12:15:06;;;;;;;3.38;3.08;;;41.10;99.90;;;;;;5026635;28;20108;-73
2023/08/06 12:17:32;;;;;;;3.85;3.53;;;40.20;99.90;;;;;;5031994;28;20041;-73
2023/08/06 12:20:01;;;;;;;2.60;2.40;;;;;;;;;;5030855;28;20099;-73
2023/08/06 12:22:27;;;;;;;8.40;7.78;;;;;;;;;;5025878;28;20134;-73
2023/08/06 12:24:55;;;;;;;4.25;3.85;;;;;;;;;;5033774;28;20475;-68
2023/08/06 12:27:21;;;;;;;7.28;6.68;;;;;;;;;;5038082;28;20025;-68
2023/08/06 12:29:50;;;;;;;7.85;7.30;;;;;;;;;;5038149;28;20026;-68
2023/08/06 12:32:16;;;;;;;3.60;3.40;;;;;;;;;;5034482;28;20029;-68
2023/08/06 12:34:43;;;;;;;4.20;3.88;;;;;;;;;;5032933;28;20090;-68
2023/08/06 12:37:09;;;;;;;3.22;3.05;;;;;;;;;;5038882;28;20497;-68
2023/08/06 12:39:37;;;;;;;6.30;5.82;;;;;;;;;;5034866;28;20030;-67
2023/08/06 12:42:04;;;;;;;5.57;5.07;;;;;;;;;;5036994;28;20470;-68
2023/08/06 12:44:30;;;;;;;4.25;3.58;;;;;;;;;;5038010;28;20088;-67
2023/08/06 12:46:56;;;;;;;2.25;2.03;;;;;;;;;;5032030;28;20486;-68
2023/08/06 12:49:22;;;;;;;17.13;15.50;;;;;;;;;;5032282;28;20028;-68
2023/08/06 12:51:49;;;;;;;28.48;12.98;;;;;;;;;;5044085;28;20040;-70
2023/08/06 12:54:16;;;;;;;16.23;14.68;;;;;;;;;;5037872;28;20387;-72
2023/08/06 12:56:42;;;;;;;22.58;20.48;;;;;;;;;;5034352;28;20022;-71
2023/08/06 12:59:08;;;;;;;3.45;3.25;;;;;;;;;;5037992;28;20483;-71
2023/08/06 13:01:34;;;;;;;6.63;6.13;;;;;;;;;;5038916;28;20082;-70
2023/08/06 13:04:01;;;;;;;10.52;9.52;;;;;;;;;;5039342;28;20068;-71